sensor_id;sensor_type;location;lat;lon;timestamp;P1;durP1;ratioP1;P2;durP2;ratioP2
70549;SDS011;58101;48.658;2.328;2023-05-14T00:00:50;22.52;;;11.00;;
70549;SDS011;58101;48.658;2.328;2023-05-14T00:03:44;22.77;;;11.55;;
70549;SDS011;58101;48.658;2.328;2023-05-14T00:09:43;38.42;;;12.75;;
70549;SDS011;58101;48.658;2.328;2023-05-14T00:15:24;26.85;;;13.18;;
70549;SDS011;58101;48.658;2.328;2023-05-14T00:18:10;26.30;;;13.48;;
70549;SDS011;58101;48.658;2.328;2023-05-14T00:21:23;25.08;;;12.90;;
70549;SDS011;58101;48.658;2.328;2023-05-14T00:24:01;28.55;;;13.27;;
70549;SDS011;58101;48.658;2.328;2023-05-14T00:29:41;27.02;;;13.60;;
70549;SDS011;58101;48.658;2.328;2023-05-14T00:32:07;27.20;;;13.10;;
70549;SDS011;58101;48.658;2.328;2023-05-14T00:37:41;34.08;;;14.45;;
70549;SDS011;58101;48.658;2.328;2023-05-14T00:40:25;28.35;;;14.18;;
70549;SDS011;58101;48.658;2.328;2023-05-14T00:45:39;26.92;;;14.18;;
70549;SDS011;58101;48.658;2.328;2023-05-14T00:56:55;31.33;;;15.02;;
70549;SDS011;58101;48.658;2.328;2023-05-14T00:59:30;31.73;;;14.95;;
70549;SDS011;58101;48.658;2.328;2023-05-14T01:16:01;31.40;;;15.10;;
70549;SDS011;58101;48.658;2.328;2023-05-14T01:37:45;29.27;;;15.57;;
70549;SDS011;58101;48.658;2.328;2023-05-14T01:40:12;33.67;;;15.57;;
70549;SDS011;58101;48.658;2.328;2023-05-14T01:42:41;33.30;;;15.40;;
70549;SDS011;58101;48.658;2.328;2023-05-14T01:45:08;30.15;;;15.52;;
70549;SDS011;58101;48.658;2.328;2023-05-14T01:47:34;33.15;;;15.73;;
70549;SDS011;58101;48.658;2.328;2023-05-14T01:49:59;33.75;;;15.88;;
70549;SDS011;58101;48.658;2.328;2023-05-14T01:52:25;28.15;;;15.20;;
70549;SDS011;58101;48.658;2.328;2023-05-14T01:54:51;31.42;;;15.80;;
70549;SDS011;58101;48.658;2.328;2023-05-14T01:57:17;29.33;;;15.35;;
70549;SDS011;58101;48.658;2.328;2023-05-14T01:59:42;30.63;;;15.23;;
70549;SDS011;58101;48.658;2.328;2023-05-14T02:02:08;31.02;;;15.13;;
70549;SDS011;58101;48.658;2.328;2023-05-14T02:04:33;30.80;;;15.50;;
70549;SDS011;58101;48.658;2.328;2023-05-14T02:06:59;28.85;;;15.10;;
70549;SDS011;58101;48.658;2.328;2023-05-14T02:09:25;31.10;;;15.13;;
70549;SDS011;58101;48.658;2.328;2023-05-14T02:11:50;30.88;;;15.63;;
70549;SDS011;58101;48.658;2.328;2023-05-14T02:14:16;32.83;;;15.98;;
70549;SDS011;58101;48.658;2.328;2023-05-14T02:16:41;32.83;;;16.20;;
70549;SDS011;58101;48.658;2.328;2023-05-14T02:19:07;31.00;;;15.38;;
70549;SDS011;58101;48.658;2.328;2023-05-14T02:21:33;28.95;;;15.77;;
70549;SDS011;58101;48.658;2.328;2023-05-14T02:23:58;31.50;;;16.52;;
70549;SDS011;58101;48.658;2.328;2023-05-14T02:26:25;34.05;;;16.92;;
70549;SDS011;58101;48.658;2.328;2023-05-14T02:28:51;34.17;;;16.83;;
70549;SDS011;58101;48.658;2.328;2023-05-14T02:31:16;32.08;;;17.73;;
70549;SDS011;58101;48.658;2.328;2023-05-14T02:33:43;33.33;;;17.23;;
70549;SDS011;58101;48.658;2.328;2023-05-14T02:36:09;36.20;;;17.35;;
70549;SDS011;58101;48.658;2.328;2023-05-14T02:38:35;35.58;;;17.65;;
70549;SDS011;58101;48.658;2.328;2023-05-14T02:41:00;36.53;;;18.52;;
70549;SDS011;58101;48.658;2.328;2023-05-14T02:43:26;38.70;;;17.95;;
70549;SDS011;58101;48.658;2.328;2023-05-14T02:45:51;37.53;;;17.08;;
70549;SDS011;58101;48.658;2.328;2023-05-14T02:48:17;34.42;;;17.95;;
70549;SDS011;58101;48.658;2.328;2023-05-14T02:50:43;37.40;;;18.65;;
70549;SDS011;58101;48.658;2.328;2023-05-14T02:53:08;36.13;;;17.73;;
70549;SDS011;58101;48.658;2.328;2023-05-14T02:55:35;34.00;;;18.13;;
70549;SDS011;58101;48.658;2.328;2023-05-14T02:58:01;38.35;;;18.50;;
70549;SDS011;58101;48.658;2.328;2023-05-14T03:00:27;36.45;;;17.63;;
70549;SDS011;58101;48.658;2.328;2023-05-14T03:02:52;40.53;;;18.80;;
70549;SDS011;58101;48.658;2.328;2023-05-14T03:05:18;39.10;;;18.38;;
70549;SDS011;58101;48.658;2.328;2023-05-14T03:07:44;37.90;;;18.73;;
70549;SDS011;58101;48.658;2.328;2023-05-14T03:10:13;38.90;;;18.42;;
70549;SDS011;58101;48.658;2.328;2023-05-14T03:12:39;38.55;;;18.00;;
70549;SDS011;58101;48.658;2.328;2023-05-14T03:15:04;37.10;;;18.58;;
70549;SDS011;58101;48.658;2.328;2023-05-14T03:17:30;37.50;;;18.35;;
70549;SDS011;58101;48.658;2.328;2023-05-14T03:19:56;37.97;;;17.98;;
70549;SDS011;58101;48.658;2.328;2023-05-14T03:22:21;37.25;;;18.45;;
70549;SDS011;58101;48.658;2.328;2023-05-14T03:24:47;37.08;;;18.55;;
70549;SDS011;58101;48.658;2.328;2023-05-14T03:27:12;40.85;;;19.02;;
70549;SDS011;58101;48.658;2.328;2023-05-14T03:29:38;36.30;;;17.83;;
70549;SDS011;58101;48.658;2.328;2023-05-14T03:32:04;37.88;;;18.75;;
70549;SDS011;58101;48.658;2.328;2023-05-14T03:34:30;37.50;;;18.52;;
70549;SDS011;58101;48.658;2.328;2023-05-14T03:36:57;38.08;;;18.17;;
70549;SDS011;58101;48.658;2.328;2023-05-14T03:39:22;38.80;;;18.70;;
70549;SDS011;58101;48.658;2.328;2023-05-14T03:41:48;44.90;;;19.33;;
70549;SDS011;58101;48.658;2.328;2023-05-14T03:44:14;34.38;;;17.90;;
70549;SDS011;58101;48.658;2.328;2023-05-14T03:46:42;37.53;;;18.92;;
70549;SDS011;58101;48.658;2.328;2023-05-14T03:49:08;37.92;;;18.92;;
70549;SDS011;58101;48.658;2.328;2023-05-14T03:51:33;37.63;;;18.42;;
70549;SDS011;58101;48.658;2.328;2023-05-14T03:53:59;35.65;;;17.85;;
70549;SDS011;58101;48.658;2.328;2023-05-14T03:56:25;39.53;;;19.23;;
70549;SDS011;58101;48.658;2.328;2023-05-14T03:58:51;40.03;;;19.10;;
70549;SDS011;58101;48.658;2.328;2023-05-14T04:01:17;36.45;;;18.23;;
70549;SDS011;58101;48.658;2.328;2023-05-14T04:03:42;38.28;;;18.27;;
70549;SDS011;58101;48.658;2.328;2023-05-14T04:06:08;46.20;;;18.67;;
70549;SDS011;58101;48.658;2.328;2023-05-14T04:08:33;39.35;;;19.13;;
70549;SDS011;58101;48.658;2.328;2023-05-14T04:10:59;42.45;;;18.83;;
70549;SDS011;58101;48.658;2.328;2023-05-14T04:13:25;38.42;;;18.35;;
70549;SDS011;58101;48.658;2.328;2023-05-14T04:15:50;35.92;;;17.35;;
70549;SDS011;58101;48.658;2.328;2023-05-14T04:18:16;32.17;;;16.17;;
70549;SDS011;58101;48.658;2.328;2023-05-14T04:20:42;33.50;;;16.73;;
70549;SDS011;58101;48.658;2.328;2023-05-14T04:23:07;35.40;;;16.30;;
70549;SDS011;58101;48.658;2.328;2023-05-14T04:25:33;32.08;;;16.35;;
70549;SDS011;58101;48.658;2.328;2023-05-14T04:27:58;32.72;;;16.25;;
70549;SDS011;58101;48.658;2.328;2023-05-14T04:30:24;33.72;;;15.68;;
70549;SDS011;58101;48.658;2.328;2023-05-14T04:32:50;33.13;;;16.33;;
70549;SDS011;58101;48.658;2.328;2023-05-14T04:35:15;33.40;;;16.27;;
70549;SDS011;58101;48.658;2.328;2023-05-14T04:37:41;36.92;;;16.83;;
70549;SDS011;58101;48.658;2.328;2023-05-14T04:40:07;33.92;;;16.17;;
70549;SDS011;58101;48.658;2.328;2023-05-14T04:42:36;34.80;;;16.27;;
70549;SDS011;58101;48.658;2.328;2023-05-14T04:45:02;32.97;;;15.68;;
70549;SDS011;58101;48.658;2.328;2023-05-14T04:47:29;34.85;;;16.38;;
70549;SDS011;58101;48.658;2.328;2023-05-14T04:49:55;35.90;;;17.52;;
70549;SDS011;58101;48.658;2.328;2023-05-14T04:52:21;35.10;;;16.23;;
70549;SDS011;58101;48.658;2.328;2023-05-14T04:54:47;36.75;;;17.08;;
70549;SDS011;58101;48.658;2.328;2023-05-14T04:57:13;36.67;;;15.93;;
70549;SDS011;58101;48.658;2.328;2023-05-14T04:59:39;32.25;;;15.32;;
70549;SDS011;58101;48.658;2.328;2023-05-14T05:02:04;34.08;;;16.05;;
70549;SDS011;58101;48.658;2.328;2023-05-14T05:04:30;32.13;;;15.68;;
70549;SDS011;58101;48.658;2.328;2023-05-14T05:06:56;36.75;;;16.15;;
70549;SDS011;58101;48.658;2.328;2023-05-14T05:09:21;36.45;;;16.60;;
70549;SDS011;58101;48.658;2.328;2023-05-14T05:11:47;37.63;;;15.73;;
70549;SDS011;58101;48.658;2.328;2023-05-14T05:14:12;34.45;;;16.52;;
70549;SDS011;58101;48.658;2.328;2023-05-14T05:16:38;36.70;;;16.73;;
70549;SDS011;58101;48.658;2.328;2023-05-14T05:19:04;35.60;;;16.52;;
70549;SDS011;58101;48.658;2.328;2023-05-14T05:21:29;36.10;;;16.02;;
70549;SDS011;58101;48.658;2.328;2023-05-14T05:23:55;35.92;;;15.90;;
70549;SDS011;58101;48.658;2.328;2023-05-14T05:26:21;37.60;;;16.52;;
70549;SDS011;58101;48.658;2.328;2023-05-14T05:28:46;39.55;;;16.88;;
70549;SDS011;58101;48.658;2.328;2023-05-14T05:31:12;37.75;;;17.30;;
70549;SDS011;58101;48.658;2.328;2023-05-14T05:33:38;35.90;;;16.52;;
70549;SDS011;58101;48.658;2.328;2023-05-14T05:36:03;35.33;;;16.40;;
70549;SDS011;58101;48.658;2.328;2023-05-14T05:38:29;37.65;;;16.90;;
70549;SDS011;58101;48.658;2.328;2023-05-14T05:40:55;38.65;;;17.10;;
70549;SDS011;58101;48.658;2.328;2023-05-14T05:43:20;40.75;;;17.58;;
70549;SDS011;58101;48.658;2.328;2023-05-14T05:45:46;38.83;;;17.33;;
70549;SDS011;58101;48.658;2.328;2023-05-14T05:48:12;40.40;;;16.60;;
70549;SDS011;58101;48.658;2.328;2023-05-14T05:50:37;39.20;;;17.20;;
70549;SDS011;58101;48.658;2.328;2023-05-14T05:53:03;39.15;;;17.27;;
70549;SDS011;58101;48.658;2.328;2023-05-14T05:55:28;37.55;;;16.73;;
70549;SDS011;58101;48.658;2.328;2023-05-14T05:57:55;36.28;;;16.98;;
70549;SDS011;58101;48.658;2.328;2023-05-14T06:00:20;41.55;;;17.45;;
70549;SDS011;58101;48.658;2.328;2023-05-14T06:02:47;39.60;;;18.08;;
70549;SDS011;58101;48.658;2.328;2023-05-14T06:05:13;38.72;;;17.23;;
70549;SDS011;58101;48.658;2.328;2023-05-14T06:07:38;38.78;;;17.60;;
70549;SDS011;58101;48.658;2.328;2023-05-14T06:10:04;40.92;;;17.02;;
70549;SDS011;58101;48.658;2.328;2023-05-14T06:12:30;39.72;;;17.48;;
70549;SDS011;58101;48.658;2.328;2023-05-14T06:14:56;38.47;;;17.17;;
70549;SDS011;58101;48.658;2.328;2023-05-14T06:17:25;40.15;;;17.00;;
70549;SDS011;58101;48.658;2.328;2023-05-14T06:19:51;38.50;;;17.33;;
70549;SDS011;58101;48.658;2.328;2023-05-14T06:22:17;39.05;;;16.85;;
70549;SDS011;58101;48.658;2.328;2023-05-14T06:24:43;36.85;;;17.13;;
70549;SDS011;58101;48.658;2.328;2023-05-14T06:27:09;41.67;;;18.02;;
70549;SDS011;58101;48.658;2.328;2023-05-14T06:29:35;39.88;;;17.38;;
70549;SDS011;58101;48.658;2.328;2023-05-14T06:32:01;39.17;;;17.75;;
70549;SDS011;58101;48.658;2.328;2023-05-14T06:36:54;40.47;;;16.85;;
70549;SDS011;58101;48.658;2.328;2023-05-14T06:39:21;42.78;;;17.67;;
70549;SDS011;58101;48.658;2.328;2023-05-14T06:41:46;39.42;;;16.75;;
70549;SDS011;58101;48.658;2.328;2023-05-14T06:44:12;42.47;;;18.15;;
70549;SDS011;58101;48.658;2.328;2023-05-14T06:46:37;41.67;;;17.65;;
70549;SDS011;58101;48.658;2.328;2023-05-14T06:49:03;38.80;;;17.10;;
70549;SDS011;58101;48.658;2.328;2023-05-14T06:51:29;38.75;;;17.20;;
70549;SDS011;58101;48.658;2.328;2023-05-14T06:53:56;37.83;;;17.05;;
70549;SDS011;58101;48.658;2.328;2023-05-14T06:56:22;38.78;;;17.25;;
70549;SDS011;58101;48.658;2.328;2023-05-14T06:58:47;36.90;;;17.27;;
70549;SDS011;58101;48.658;2.328;2023-05-14T07:01:13;39.53;;;17.10;;
70549;SDS011;58101;48.658;2.328;2023-05-14T07:03:40;37.20;;;17.55;;
70549;SDS011;58101;48.658;2.328;2023-05-14T07:06:06;37.85;;;17.50;;
70549;SDS011;58101;48.658;2.328;2023-05-14T07:08:31;41.42;;;17.80;;
70549;SDS011;58101;48.658;2.328;2023-05-14T07:10:57;41.20;;;17.58;;
70549;SDS011;58101;48.658;2.328;2023-05-14T07:13:23;40.05;;;17.08;;
70549;SDS011;58101;48.658;2.328;2023-05-14T07:15:52;43.47;;;17.40;;
70549;SDS011;58101;48.658;2.328;2023-05-14T07:18:19;39.17;;;17.05;;
70549;SDS011;58101;48.658;2.328;2023-05-14T07:20:45;37.85;;;17.65;;
70549;SDS011;58101;48.658;2.328;2023-05-14T07:23:11;40.35;;;17.75;;
70549;SDS011;58101;48.658;2.328;2023-05-14T07:25:37;42.83;;;17.50;;
70549;SDS011;58101;48.658;2.328;2023-05-14T07:28:02;40.97;;;17.45;;
70549;SDS011;58101;48.658;2.328;2023-05-14T07:30:28;44.67;;;18.52;;
70549;SDS011;58101;48.658;2.328;2023-05-14T07:32:54;44.35;;;18.33;;
70549;SDS011;58101;48.658;2.328;2023-05-14T07:35:19;46.65;;;20.42;;
70549;SDS011;58101;48.658;2.328;2023-05-14T07:37:45;45.65;;;18.13;;
70549;SDS011;58101;48.658;2.328;2023-05-14T07:40:11;46.50;;;18.77;;
70549;SDS011;58101;48.658;2.328;2023-05-14T07:42:36;51.17;;;19.60;;
70549;SDS011;58101;48.658;2.328;2023-05-14T07:45:03;43.20;;;17.50;;
70549;SDS011;58101;48.658;2.328;2023-05-14T07:47:29;43.00;;;17.58;;
70549;SDS011;58101;48.658;2.328;2023-05-14T07:49:55;44.00;;;17.92;;
70549;SDS011;58101;48.658;2.328;2023-05-14T07:52:21;45.47;;;18.08;;
70549;SDS011;58101;48.658;2.328;2023-05-14T07:54:47;39.38;;;17.40;;
70549;SDS011;58101;48.658;2.328;2023-05-14T07:57:15;42.75;;;17.67;;
70549;SDS011;58101;48.658;2.328;2023-05-14T07:59:40;42.90;;;17.88;;
70549;SDS011;58101;48.658;2.328;2023-05-14T08:02:06;43.28;;;17.33;;
70549;SDS011;58101;48.658;2.328;2023-05-14T08:04:34;42.80;;;18.05;;
70549;SDS011;58101;48.658;2.328;2023-05-14T08:07:00;47.08;;;19.10;;
70549;SDS011;58101;48.658;2.328;2023-05-14T08:09:25;48.03;;;19.40;;
70549;SDS011;58101;48.658;2.328;2023-05-14T08:11:51;48.10;;;19.38;;
70549;SDS011;58101;48.658;2.328;2023-05-14T08:14:16;51.63;;;19.38;;
70549;SDS011;58101;48.658;2.328;2023-05-14T08:16:42;47.15;;;18.15;;
70549;SDS011;58101;48.658;2.328;2023-05-14T08:19:07;45.75;;;18.90;;
70549;SDS011;58101;48.658;2.328;2023-05-14T08:21:33;45.80;;;18.42;;
70549;SDS011;58101;48.658;2.328;2023-05-14T08:23:59;41.35;;;17.73;;
70549;SDS011;58101;48.658;2.328;2023-05-14T08:26:24;40.42;;;17.20;;
70549;SDS011;58101;48.658;2.328;2023-05-14T08:28:51;41.38;;;17.80;;
70549;SDS011;58101;48.658;2.328;2023-05-14T08:33:42;40.85;;;16.33;;
70549;SDS011;58101;48.658;2.328;2023-05-14T08:36:08;39.88;;;16.40;;
70549;SDS011;58101;48.658;2.328;2023-05-14T08:38:35;41.50;;;15.95;;
70549;SDS011;58101;48.658;2.328;2023-05-14T08:41:00;40.95;;;17.27;;
70549;SDS011;58101;48.658;2.328;2023-05-14T08:43:36;40.05;;;16.60;;
70549;SDS011;58101;48.658;2.328;2023-05-14T08:46:13;41.35;;;16.52;;
70549;SDS011;58101;48.658;2.328;2023-05-14T08:48:41;38.30;;;16.23;;
70549;SDS011;58101;48.658;2.328;2023-05-14T08:51:07;39.20;;;16.60;;
70549;SDS011;58101;48.658;2.328;2023-05-14T08:53:33;40.45;;;15.82;;
70549;SDS011;58101;48.658;2.328;2023-05-14T08:56:00;37.83;;;15.82;;
70549;SDS011;58101;48.658;2.328;2023-05-14T08:58:27;34.50;;;15.30;;
70549;SDS011;58101;48.658;2.328;2023-05-14T09:00:55;39.13;;;16.60;;
70549;SDS011;58101;48.658;2.328;2023-05-14T09:03:20;39.22;;;16.63;;
70549;SDS011;58101;48.658;2.328;2023-05-14T09:05:48;35.38;;;15.98;;
70549;SDS011;58101;48.658;2.328;2023-05-14T09:08:15;35.20;;;15.40;;
70549;SDS011;58101;48.658;2.328;2023-05-14T09:10:41;34.75;;;15.48;;
70549;SDS011;58101;48.658;2.328;2023-05-14T09:13:07;35.58;;;15.63;;
70549;SDS011;58101;48.658;2.328;2023-05-14T09:15:34;35.63;;;15.80;;
70549;SDS011;58101;48.658;2.328;2023-05-14T09:18:04;38.60;;;16.38;;
70549;SDS011;58101;48.658;2.328;2023-05-14T09:20:30;39.72;;;16.15;;
70549;SDS011;58101;48.658;2.328;2023-05-14T09:22:56;35.40;;;16.20;;
70549;SDS011;58101;48.658;2.328;2023-05-14T09:25:28;38.22;;;16.58;;
70549;SDS011;58101;48.658;2.328;2023-05-14T09:27:56;37.05;;;15.50;;
70549;SDS011;58101;48.658;2.328;2023-05-14T09:30:22;42.42;;;16.27;;
70549;SDS011;58101;48.658;2.328;2023-05-14T09:35:23;39.95;;;15.93;;
70549;SDS011;58101;48.658;2.328;2023-05-14T09:37:50;35.63;;;15.25;;
70549;SDS011;58101;48.658;2.328;2023-05-14T09:40:18;37.55;;;15.43;;
70549;SDS011;58101;48.658;2.328;2023-05-14T09:42:47;37.58;;;16.38;;
70549;SDS011;58101;48.658;2.328;2023-05-14T09:45:14;34.92;;;15.48;;
70549;SDS011;58101;48.658;2.328;2023-05-14T09:47:40;33.90;;;14.75;;
70549;SDS011;58101;48.658;2.328;2023-05-14T09:50:06;37.00;;;16.05;;
70549;SDS011;58101;48.658;2.328;2023-05-14T09:52:32;35.33;;;15.30;;
70549;SDS011;58101;48.658;2.328;2023-05-14T09:55:01;32.60;;;15.38;;
70549;SDS011;58101;48.658;2.328;2023-05-14T09:57:28;35.15;;;15.05;;
70549;SDS011;58101;48.658;2.328;2023-05-14T09:59:54;35.97;;;15.20;;
70549;SDS011;58101;48.658;2.328;2023-05-14T10:02:28;34.63;;;15.10;;
70549;SDS011;58101;48.658;2.328;2023-05-14T10:05:00;36.83;;;15.63;;
70549;SDS011;58101;48.658;2.328;2023-05-14T10:07:30;34.92;;;15.57;;
70549;SDS011;58101;48.658;2.328;2023-05-14T10:10:01;36.63;;;15.52;;
70549;SDS011;58101;48.658;2.328;2023-05-14T10:12:30;33.35;;;15.73;;
70549;SDS011;58101;48.658;2.328;2023-05-14T10:15:02;36.42;;;16.05;;
70549;SDS011;58101;48.658;2.328;2023-05-14T10:17:33;36.33;;;15.52;;
70549;SDS011;58101;48.658;2.328;2023-05-14T10:20:01;36.83;;;15.20;;
70549;SDS011;58101;48.658;2.328;2023-05-14T10:22:30;38.30;;;16.70;;
70549;SDS011;58101;48.658;2.328;2023-05-14T10:24:59;34.70;;;14.98;;
70549;SDS011;58101;48.658;2.328;2023-05-14T10:27:25;34.30;;;16.15;;
70549;SDS011;58101;48.658;2.328;2023-05-14T10:29:52;35.60;;;15.98;;
70549;SDS011;58101;48.658;2.328;2023-05-14T10:32:19;33.90;;;14.77;;
70549;SDS011;58101;48.658;2.328;2023-05-14T10:34:46;35.13;;;15.50;;
70549;SDS011;58101;48.658;2.328;2023-05-14T10:37:24;31.83;;;14.55;;
70549;SDS011;58101;48.658;2.328;2023-05-14T10:40:24;32.75;;;14.80;;
70549;SDS011;58101;48.658;2.328;2023-05-14T10:42:43;32.15;;;13.85;;
70549;SDS011;58101;48.658;2.328;2023-05-14T10:45:13;28.17;;;13.55;;
70549;SDS011;58101;48.658;2.328;2023-05-14T10:47:44;30.60;;;13.88;;
70549;SDS011;58101;48.658;2.328;2023-05-14T10:50:11;31.17;;;14.27;;
70549;SDS011;58101;48.658;2.328;2023-05-14T10:52:42;30.00;;;14.40;;
70549;SDS011;58101;48.658;2.328;2023-05-14T10:55:11;32.95;;;14.73;;
70549;SDS011;58101;48.658;2.328;2023-05-14T10:57:38;29.52;;;14.30;;
70549;SDS011;58101;48.658;2.328;2023-05-14T11:00:07;29.60;;;14.38;;
70549;SDS011;58101;48.658;2.328;2023-05-14T11:02:34;30.75;;;14.55;;
70549;SDS011;58101;48.658;2.328;2023-05-14T11:05:05;36.63;;;18.55;;
70549;SDS011;58101;48.658;2.328;2023-05-14T11:07:36;35.05;;;17.35;;
70549;SDS011;58101;48.658;2.328;2023-05-14T11:10:07;31.88;;;15.75;;
70549;SDS011;58101;48.658;2.328;2023-05-14T11:12:36;25.95;;;13.77;;
70549;SDS011;58101;48.658;2.328;2023-05-14T11:15:05;26.17;;;13.10;;
70549;SDS011;58101;48.658;2.328;2023-05-14T11:17:38;29.83;;;14.60;;
70549;SDS011;58101;48.658;2.328;2023-05-14T11:20:05;27.13;;;12.73;;
70549;SDS011;58101;48.658;2.328;2023-05-14T11:22:36;30.65;;;14.18;;
70549;SDS011;58101;48.658;2.328;2023-05-14T11:25:02;28.40;;;13.57;;
70549;SDS011;58101;48.658;2.328;2023-05-14T11:27:29;28.83;;;14.05;;
70549;SDS011;58101;48.658;2.328;2023-05-14T11:29:56;29.02;;;14.77;;
70549;SDS011;58101;48.658;2.328;2023-05-14T11:32:22;27.83;;;14.40;;
70549;SDS011;58101;48.658;2.328;2023-05-14T11:34:47;28.05;;;13.60;;
70549;SDS011;58101;48.658;2.328;2023-05-14T11:37:14;27.80;;;15.25;;
70549;SDS011;58101;48.658;2.328;2023-05-14T11:39:49;25.83;;;13.50;;
70549;SDS011;58101;48.658;2.328;2023-05-14T11:42:16;27.38;;;14.05;;
70549;SDS011;58101;48.658;2.328;2023-05-14T11:44:44;27.75;;;14.70;;
70549;SDS011;58101;48.658;2.328;2023-05-14T11:47:11;25.95;;;13.43;;
70549;SDS011;58101;48.658;2.328;2023-05-14T11:49:38;50.88;;;19.15;;
70549;SDS011;58101;48.658;2.328;2023-05-14T11:52:04;26.55;;;13.65;;
70549;SDS011;58101;48.658;2.328;2023-05-14T11:54:31;26.02;;;13.80;;
70549;SDS011;58101;48.658;2.328;2023-05-14T11:57:00;26.42;;;14.10;;
70549;SDS011;58101;48.658;2.328;2023-05-14T11:59:27;32.63;;;17.08;;
70549;SDS011;58101;48.658;2.328;2023-05-14T12:01:55;34.08;;;18.48;;
70549;SDS011;58101;48.658;2.328;2023-05-14T12:04:21;27.02;;;15.35;;
70549;SDS011;58101;48.658;2.328;2023-05-14T12:06:47;27.30;;;13.90;;
70549;SDS011;58101;48.658;2.328;2023-05-14T12:09:20;23.45;;;12.75;;
70549;SDS011;58101;48.658;2.328;2023-05-14T12:11:47;24.17;;;12.63;;
70549;SDS011;58101;48.658;2.328;2023-05-14T12:14:21;22.77;;;12.75;;
70549;SDS011;58101;48.658;2.328;2023-05-14T12:16:48;24.45;;;13.45;;
70549;SDS011;58101;48.658;2.328;2023-05-14T12:19:15;23.60;;;11.98;;
70549;SDS011;58101;48.658;2.328;2023-05-14T12:21:43;23.35;;;11.93;;
70549;SDS011;58101;48.658;2.328;2023-05-14T12:24:16;22.75;;;12.85;;
70549;SDS011;58101;48.658;2.328;2023-05-14T12:26:43;22.80;;;12.63;;
70549;SDS011;58101;48.658;2.328;2023-05-14T12:29:14;24.17;;;13.70;;
70549;SDS011;58101;48.658;2.328;2023-05-14T12:31:46;22.95;;;12.80;;
70549;SDS011;58101;48.658;2.328;2023-05-14T12:34:13;23.70;;;13.13;;
70549;SDS011;58101;48.658;2.328;2023-05-14T12:36:40;27.00;;;14.50;;
70549;SDS011;58101;48.658;2.328;2023-05-14T12:39:06;22.80;;;13.10;;
70549;SDS011;58101;48.658;2.328;2023-05-14T12:41:32;22.00;;;12.85;;
70549;SDS011;58101;48.658;2.328;2023-05-14T12:43:58;21.63;;;12.50;;
70549;SDS011;58101;48.658;2.328;2023-05-14T12:46:24;24.92;;;13.40;;
70549;SDS011;58101;48.658;2.328;2023-05-14T12:48:51;22.10;;;11.82;;
70549;SDS011;58101;48.658;2.328;2023-05-14T12:51:18;23.52;;;12.38;;
70549;SDS011;58101;48.658;2.328;2023-05-14T12:53:43;21.55;;;11.70;;
70549;SDS011;58101;48.658;2.328;2023-05-14T12:56:09;21.13;;;12.13;;
70549;SDS011;58101;48.658;2.328;2023-05-14T12:58:35;21.88;;;12.95;;
70549;SDS011;58101;48.658;2.328;2023-05-14T13:01:00;21.27;;;12.73;;
70549;SDS011;58101;48.658;2.328;2023-05-14T13:03:26;22.20;;;13.15;;
70549;SDS011;58101;48.658;2.328;2023-05-14T13:05:52;24.70;;;12.48;;
70549;SDS011;58101;48.658;2.328;2023-05-14T13:08:20;21.50;;;12.57;;
70549;SDS011;58101;48.658;2.328;2023-05-14T13:10:48;24.35;;;13.80;;
70549;SDS011;58101;48.658;2.328;2023-05-14T13:13:15;19.58;;;11.43;;
70549;SDS011;58101;48.658;2.328;2023-05-14T13:15:40;20.52;;;11.98;;
70549;SDS011;58101;48.658;2.328;2023-05-14T13:18:06;17.80;;;10.88;;
70549;SDS011;58101;48.658;2.328;2023-05-14T13:20:32;18.85;;;11.30;;
70549;SDS011;58101;48.658;2.328;2023-05-14T13:22:58;22.02;;;12.70;;
70549;SDS011;58101;48.658;2.328;2023-05-14T13:25:24;19.60;;;11.50;;
70549;SDS011;58101;48.658;2.328;2023-05-14T13:27:49;20.02;;;11.40;;
70549;SDS011;58101;48.658;2.328;2023-05-14T13:30:16;21.27;;;11.95;;
70549;SDS011;58101;48.658;2.328;2023-05-14T13:32:42;19.77;;;11.90;;
70549;SDS011;58101;48.658;2.328;2023-05-14T13:35:08;18.20;;;11.52;;
70549;SDS011;58101;48.658;2.328;2023-05-14T13:37:34;19.13;;;11.32;;
70549;SDS011;58101;48.658;2.328;2023-05-14T13:40:00;19.10;;;11.48;;
70549;SDS011;58101;48.658;2.328;2023-05-14T13:42:25;17.77;;;11.25;;
70549;SDS011;58101;48.658;2.328;2023-05-14T13:44:51;18.70;;;10.75;;
70549;SDS011;58101;48.658;2.328;2023-05-14T13:47:16;16.95;;;9.82;;
70549;SDS011;58101;48.658;2.328;2023-05-14T13:49:42;18.70;;;10.82;;
70549;SDS011;58101;48.658;2.328;2023-05-14T13:52:08;18.58;;;10.35;;
70549;SDS011;58101;48.658;2.328;2023-05-14T13:54:33;18.35;;;10.55;;
70549;SDS011;58101;48.658;2.328;2023-05-14T13:56:59;17.30;;;10.45;;
70549;SDS011;58101;48.658;2.328;2023-05-14T13:59:24;19.85;;;10.77;;
70549;SDS011;58101;48.658;2.328;2023-05-14T14:01:50;17.88;;;10.18;;
70549;SDS011;58101;48.658;2.328;2023-05-14T14:04:16;18.88;;;10.30;;
70549;SDS011;58101;48.658;2.328;2023-05-14T14:06:41;17.63;;;10.55;;
70549;SDS011;58101;48.658;2.328;2023-05-14T14:11:33;19.52;;;10.85;;
70549;SDS011;58101;48.658;2.328;2023-05-14T14:13:59;18.42;;;10.73;;
70549;SDS011;58101;48.658;2.328;2023-05-14T14:16:25;19.30;;;10.48;;
70549;SDS011;58101;48.658;2.328;2023-05-14T14:18:50;18.15;;;9.90;;
70549;SDS011;58101;48.658;2.328;2023-05-14T14:21:16;14.95;;;8.73;;
70549;SDS011;58101;48.658;2.328;2023-05-14T14:23:43;16.20;;;9.68;;
70549;SDS011;58101;48.658;2.328;2023-05-14T14:26:12;16.23;;;8.68;;
70549;SDS011;58101;48.658;2.328;2023-05-14T14:28:38;13.82;;;8.20;;
70549;SDS011;58101;48.658;2.328;2023-05-14T14:31:04;15.23;;;8.45;;
70549;SDS011;58101;48.658;2.328;2023-05-14T14:33:30;17.35;;;8.95;;
70549;SDS011;58101;48.658;2.328;2023-05-14T14:35:56;15.73;;;8.25;;
70549;SDS011;58101;48.658;2.328;2023-05-14T14:38:21;13.50;;;8.05;;
70549;SDS011;58101;48.658;2.328;2023-05-14T14:40:47;15.95;;;7.60;;
70549;SDS011;58101;48.658;2.328;2023-05-14T14:43:12;14.93;;;8.32;;
70549;SDS011;58101;48.658;2.328;2023-05-14T14:45:38;13.57;;;7.38;;
70549;SDS011;58101;48.658;2.328;2023-05-14T14:50:56;16.33;;;8.10;;
70549;SDS011;58101;48.658;2.328;2023-05-14T14:53:22;16.58;;;8.77;;
70549;SDS011;58101;48.658;2.328;2023-05-14T14:55:49;13.63;;;7.70;;
70549;SDS011;58101;48.658;2.328;2023-05-14T15:00:42;17.42;;;7.57;;
70549;SDS011;58101;48.658;2.328;2023-05-14T15:03:07;15.73;;;7.68;;
70549;SDS011;58101;48.658;2.328;2023-05-14T15:05:34;13.55;;;7.43;;
70549;SDS011;58101;48.658;2.328;2023-05-14T15:07:59;14.80;;;7.78;;
70549;SDS011;58101;48.658;2.328;2023-05-14T15:10:29;14.65;;;7.53;;
70549;SDS011;58101;48.658;2.328;2023-05-14T15:12:56;12.65;;;7.00;;
70549;SDS011;58101;48.658;2.328;2023-05-14T15:15:23;10.68;;;6.40;;
70549;SDS011;58101;48.658;2.328;2023-05-14T15:17:48;11.57;;;6.60;;
70549;SDS011;58101;48.658;2.328;2023-05-14T15:20:17;12.35;;;6.05;;
70549;SDS011;58101;48.658;2.328;2023-05-14T15:22:43;14.10;;;7.25;;
70549;SDS011;58101;48.658;2.328;2023-05-14T15:25:08;12.82;;;7.22;;
70549;SDS011;58101;48.658;2.328;2023-05-14T15:27:34;13.68;;;6.63;;
70549;SDS011;58101;48.658;2.328;2023-05-14T15:30:00;13.65;;;6.90;;
70549;SDS011;58101;48.658;2.328;2023-05-14T15:32:27;13.70;;;6.30;;
70549;SDS011;58101;48.658;2.328;2023-05-14T15:34:53;12.93;;;5.35;;